Time;durP1;ratioP1;P1;durP2;ratioP2;P2;SDS_P1;SDS_P2;PMS_P1;PMS_P2;Temp;Humidity;BMP_temperature;BMP_pressure;BME280_temperature;BME280_humidity;BME280_pressure;Samples;Min_cycle;Max_cycle;Signal;HPM_P1;HPM_P2
2023/09/16 00:14:19;;;;;;;5.30;3.20;;;21.10;99.80;;;;;;4552388;19;20001;-69
2023/09/16 00:15:57;;;;;;;6.20;3.20;;;21.10;99.80;;;;;;4592335;19;20003;-68
2023/09/16 00:17:31;;;;;;;5.85;3.63;;;21.10;99.90;;;;;;4593289;19;20314;-68
2023/09/16 00:19:04;;;;;;;5.72;3.42;;;21.10;99.70;;;;;;4593496;19;20455;-68
2023/09/16 00:20:39;;;;;;;7.28;3.60;;;21.10;99.80;;;;;;4594279;19;20074;-68
2023/09/16 00:22:13;;;;;;;5.50;3.45;;;21.10;99.70;;;;;;4593797;19;19998;-68
2023/09/16 00:23:47;;;;;;;6.72;3.55;;;21.10;99.60;;;;;;4593347;19;20025;-68
2023/09/16 00:25:24;;;;;;;6.22;3.85;;;21.10;99.60;;;;;;4592449;19;20002;-68
2023/09/16 00:26:58;;;;;;;6.55;3.55;;;21.00;99.50;;;;;;4593614;19;20446;-68
2023/09/16 00:28:32;;;;;;;5.65;3.75;;;21.00;99.50;;;;;;4593687;19;20006;-68
2023/09/16 00:30:09;;;;;;;6.72;3.92;;;21.00;99.40;;;;;;4592301;19;20013;-68
2023/09/16 00:31:43;;;;;;;6.53;4.28;;;21.00;99.40;;;;;;4593202;19;20019;-68
2023/09/16 00:33:17;;;;;;;8.07;4.75;;;21.00;99.30;;;;;;4593765;19;20085;-68
2023/09/16 00:34:52;;;;;;;7.65;4.75;;;21.00;99.20;;;;;;4592976;19;20410;-68
2023/09/16 00:36:26;;;;;;;6.38;4.45;;;21.00;99.10;;;;;;4591815;19;19999;-68
2023/09/16 00:38:00;;;;;;;6.35;4.57;;;21.00;99.00;;;;;;4592834;19;20025;-68
2023/09/16 00:39:36;;;;;;;7.05;4.78;;;21.00;99.00;;;;;;4591853;19;20006;-68
2023/09/16 00:41:12;;;;;;;6.78;4.38;;;21.00;98.90;;;;;;4592993;19;19999;-68
2023/09/16 00:42:47;;;;;;;6.15;4.47;;;21.00;98.90;;;;;;4592060;19;20448;-68
2023/09/16 00:44:22;;;;;;;6.60;4.18;;;21.00;99.10;;;;;;4591787;19;20007;-68
2023/09/16 00:45:55;;;;;;;6.80;4.32;;;21.00;98.90;;;;;;4593280;19;20003;-68
2023/09/16 00:47:29;;;;;;;8.05;4.93;;;20.90;98.90;;;;;;4592987;19;20002;-68
2023/09/16 00:49:04;;;;;;;6.82;4.53;;;21.00;98.90;;;;;;4593192;19;20002;-68
2023/09/16 00:50:38;;;;;;;7.07;4.28;;;21.00;98.90;;;;;;4592911;19;20010;-68
2023/09/16 00:52:12;;;;;;;7.47;5.35;;;21.00;99.00;;;;;;4591563;19;20013;-68
2023/09/16 00:53:48;;;;;;;6.50;4.30;;;20.90;98.90;;;;;;4592584;19;20313;-68
2023/09/16 00:55:23;;;;;;;7.38;4.30;;;20.90;98.80;;;;;;4590383;19;20011;-68
2023/09/16 00:56:57;;;;;;;5.43;3.90;;;20.90;98.90;;;;;;4592691;19;20006;-68
2023/09/16 00:58:34;;;;;;;6.32;4.25;;;20.90;98.90;;;;;;4591742;19;20006;-68
2023/09/16 01:00:08;;;;;;;7.35;4.70;;;20.90;98.90;;;;;;4591654;19;20010;-68
2023/09/16 01:01:44;;;;;;;6.13;4.32;;;20.90;98.90;;;;;;4591629;19;20036;-68
2023/09/16 01:03:19;;;;;;;7.50;4.88;;;20.90;98.80;;;;;;4591334;19;19998;-68
2023/09/16 01:04:54;;;;;;;6.90;3.85;;;20.90;98.90;;;;;;4591082;19;20069;-68
2023/09/16 01:06:28;;;;;;;7.68;4.47;;;20.90;98.90;;;;;;4591569;19;20351;-68
2023/09/16 01:08:03;;;;;;;7.57;4.03;;;20.90;98.90;;;;;;4592267;19;20090;-68
2023/09/16 01:09:39;;;;;;;6.93;4.90;;;20.90;98.90;;;;;;4592497;19;20021;-68
2023/09/16 01:11:12;;;;;;;7.95;5.13;;;20.90;98.90;;;;;;4591389;19;20065;-68
2023/09/16 01:12:48;;;;;;;8.57;5.25;;;20.90;99.00;;;;;;4591473;19;20014;-68
2023/09/16 01:14:23;;;;;;;10.63;7.63;;;20.90;99.30;;;;;;4591539;19;20003;-69
2023/09/16 01:16:08;;;;;;;12.32;9.52;;;20.90;99.00;;;;;;4592483;19;20006;-68
2023/09/16 01:17:45;;;;;;;12.63;9.23;;;20.90;99.10;;;;;;4592695;19;20010;-68
2023/09/16 01:19:29;;;;;;;9.98;7.53;;;20.90;98.90;;;;;;4592581;19;19999;-68
2023/09/16 01:21:06;;;;;;;9.75;7.45;;;20.90;99.00;;;;;;4591342;19;20009;-68
2023/09/16 01:22:45;;;;;;;7.97;6.03;;;20.80;98.90;;;;;;4592106;19;20023;-68
2023/09/16 01:24:23;;;;;;;6.88;4.95;;;20.90;98.90;;;;;;4591810;19;20053;-68
2023/09/16 01:25:57;;;;;;;6.53;5.20;;;20.80;98.90;;;;;;4592549;19;20425;-68
2023/09/16 01:27:32;;;;;;;9.73;6.53;;;20.80;98.80;;;;;;4592500;19;20002;-68
2023/09/16 01:29:06;;;;;;;8.23;5.97;;;20.90;98.80;;;;;;4590902;19;20078;-68
2023/09/16 01:30:45;;;;;;;9.45;5.97;;;20.80;98.80;;;;;;4590631;19;20434;-68
2023/09/16 01:32:21;;;;;;;8.85;4.60;;;20.80;98.70;;;;;;4590833;19;20018;-68
2023/09/16 01:33:55;;;;;;;6.53;4.10;;;20.80;98.60;;;;;;4590857;19;20017;-68
2023/09/16 01:35:32;;;;;;;5.82;4.03;;;20.80;98.60;;;;;;4589931;19;20006;-68
2023/09/16 01:37:10;;;;;;;7.13;3.83;;;20.80;98.70;;;;;;4591858;19;20002;-68
2023/09/16 01:38:45;;;;;;;6.95;4.03;;;20.80;98.50;;;;;;4590786;19;20014;-68
2023/09/16 01:40:20;;;;;;;6.05;3.42;;;20.80;98.50;;;;;;4590684;19;19998;-68
2023/09/16 01:41:56;;;;;;;5.75;4.00;;;20.80;98.40;;;;;;4590675;19;20006;-68
2023/09/16 01:43:31;;;;;;;5.03;3.95;;;20.80;98.40;;;;;;4591600;19;19998;-68
2023/09/16 01:45:07;;;;;;;5.32;3.60;;;20.80;98.40;;;;;;4589800;19;20006;-68
2023/09/16 01:46:42;;;;;;;5.32;4.00;;;20.80;98.30;;;;;;4591911;19;20011;-68
2023/09/16 01:48:16;;;;;;;5.22;3.22;;;20.70;98.30;;;;;;4592180;19;20025;-68
2023/09/16 01:49:50;;;;;;;5.40;3.53;;;20.80;98.30;;;;;;4592102;19;20009;-68
2023/09/16 01:51:25;;;;;;;6.28;3.83;;;20.70;98.20;;;;;;4591841;19;20307;-68
2023/09/16 01:52:58;;;;;;;6.55;3.42;;;20.80;98.20;;;;;;4590443;19;20007;-68
2023/09/16 01:54:34;;;;;;;5.50;3.55;;;20.70;98.20;;;;;;4591265;19;20295;-68
2023/09/16 01:56:09;;;;;;;6.53;4.07;;;20.70;98.20;;;;;;4591777;19;20006;-68
2023/09/16 01:57:43;;;;;;;5.70;3.78;;;20.70;98.10;;;;;;4591761;19;20006;-68
2023/09/16 01:59:17;;;;;;;5.53;3.63;;;20.70;98.10;;;;;;4591675;19;20003;-68
2023/09/16 02:00:53;;;;;;;6.30;4.43;;;20.70;98.20;;;;;;4590672;19;20069;-68
2023/09/16 02:02:27;;;;;;;6.30;3.88;;;20.70;98.10;;;;;;4591200;19;20002;-68
2023/09/16 02:04:01;;;;;;;6.88;4.10;;;20.70;98.10;;;;;;4591433;19;20026;-68
2023/09/16 02:05:35;;;;;;;5.82;3.83;;;20.80;98.00;;;;;;4590845;19;20021;-68
2023/09/16 02:07:09;;;;;;;7.20;3.83;;;20.70;97.90;;;;;;4591879;19;20010;-68
2023/09/16 02:08:43;;;;;;;6.15;3.80;;;20.70;97.90;;;;;;4591808;19;20003;-68
2023/09/16 02:10:19;;;;;;;7.22;3.95;;;20.70;97.80;;;;;;4591933;19;20006;-68
2023/09/16 02:11:53;;;;;;;6.47;3.63;;;20.70;97.70;;;;;;4591731;19;20295;-68
2023/09/16 02:13:26;;;;;;;5.78;4.10;;;20.70;97.80;;;;;;4591468;19;20323;-68
2023/09/16 02:15:03;;;;;;;7.75;3.65;;;20.70;97.80;;;;;;4590608;19;20037;-68
2023/09/16 02:16:37;;;;;;;6.05;3.60;;;20.70;97.80;;;;;;4591805;19;20006;-68
2023/09/16 02:18:11;;;;;;;5.07;3.40;;;20.70;97.70;;;;;;4591412;19;20050;-68
2023/09/16 02:19:46;;;;;;;6.88;4.25;;;20.70;97.80;;;;;;4590076;19;20019;-68
2023/09/16 02:21:21;;;;;;;6.35;3.97;;;20.70;97.70;;;;;;4591078;19;20065;-68
2023/09/16 02:22:55;;;;;;;5.63;3.75;;;20.60;97.60;;;;;;4591599;19;20046;-68
2023/09/16 02:24:31;;;;;;;6.10;4.60;;;20.70;97.60;;;;;;4590561;19;20018;-68
2023/09/16 02:26:05;;;;;;;6.32;4.05;;;20.70;97.70;;;;;;4590135;19;20020;-68
2023/09/16 02:27:39;;;;;;;6.13;4.20;;;20.60;97.50;;;;;;4591167;19;19999;-68
2023/09/16 02:29:15;;;;;;;6.78;4.40;;;20.70;97.60;;;;;;4591228;19;20460;-68
2023/09/16 02:30:49;;;;;;;6.35;4.07;;;20.60;97.60;;;;;;4590129;19;20443;-68
2023/09/16 02:32:23;;;;;;;5.20;3.38;;;20.60;97.50;;;;;;4589883;19;20009;-68
2023/09/16 02:33:58;;;;;;;5.80;3.67;;;20.70;97.40;;;;;;4590811;19;20002;-68
2023/09/16 02:35:32;;;;;;;5.45;3.60;;;20.70;97.40;;;;;;4589817;19;20013;-68
2023/09/16 02:37:07;;;;;;;5.95;3.50;;;20.60;97.40;;;;;;4589764;19;20010;-68
2023/09/16 02:38:42;;;;;;;5.97;3.53;;;20.60;97.40;;;;;;4591081;19;20436;-68
2023/09/16 02:40:16;;;;;;;6.13;3.92;;;20.70;97.50;;;;;;4591263;19;20441;-68
2023/09/16 02:41:50;;;;;;;6.50;3.70;;;20.60;97.50;;;;;;4591071;19;20003;-68
2023/09/16 02:43:26;;;;;;;7.20;3.92;;;20.60;97.40;;;;;;4595401;19;20006;-68
2023/09/16 02:45:01;;;;;;;7.32;3.85;;;20.60;97.50;;;;;;4593830;19;20441;-68
2023/09/16 02:46:34;;;;;;;6.15;4.07;;;20.60;97.40;;;;;;4595458;19;20017;-68
2023/09/16 02:48:09;;;;;;;5.13;3.45;;;20.60;97.30;;;;;;4595706;19;20029;-68
2023/09/16 02:49:43;;;;;;;7.10;3.78;;;20.60;97.30;;;;;;4595420;19;20006;-68
2023/09/16 02:51:17;;;;;;;5.65;3.40;;;20.60;97.30;;;;;;4595363;19;20006;-68
2023/09/16 02:52:52;;;;;;;6.97;3.70;;;20.60;97.30;;;;;;4595385;19;19998;-68
2023/09/16 02:54:27;;;;;;;8.82;4.60;;;20.60;97.30;;;;;;4595202;19;19998;-68
2023/09/16 02:56:03;;;;;;;5.60;3.83;;;20.60;97.30;;;;;;4595547;19;20363;-68
2023/09/16 02:57:40;;;;;;;6.40;4.15;;;20.60;97.20;;;;;;4595353;19;20006;-68
2023/09/16 02:59:14;;;;;;;5.38;3.88;;;20.60;97.30;;;;;;4595152;19;20014;-68
2023/09/16 03:00:48;;;;;;;5.57;3.90;;;20.60;97.20;;;;;;4595493;19;20303;-68
2023/09/16 03:02:23;;;;;;;5.68;4.38;;;20.60;97.20;;;;;;4595862;19;20006;-68
2023/09/16 03:03:57;;;;;;;6.93;4.05;;;20.60;97.20;;;;;;4594981;19;20441;-68
2023/09/16 03:05:31;;;;;;;6.22;4.55;;;20.60;97.10;;;;;;4593847;19;20473;-68
2023/09/16 03:07:06;;;;;;;6.72;4.35;;;20.60;97.10;;;;;;4595153;19;20006;-68
2023/09/16 03:08:40;;;;;;;8.23;5.00;;;20.60;97.10;;;;;;4595045;19;20081;-68
2023/09/16 03:10:15;;;;;;;6.47;4.53;;;20.60;97.10;;;;;;4595297;19;20414;-68
2023/09/16 03:11:50;;;;;;;5.68;4.18;;;20.60;97.10;;;;;;4595234;19;20287;-68
2023/09/16 03:13:24;;;;;;;5.63;3.65;;;20.60;97.10;;;;;;4595117;19;20029;-68
2023/09/16 03:14:58;;;;;;;6.07;4.30;;;20.60;97.00;;;;;;4593664;19;20081;-68
2023/09/16 03:16:35;;;;;;;6.03;4.38;;;20.60;96.90;;;;;;4595082;19;20025;-68
2023/09/16 03:18:09;;;;;;;8.80;4.60;;;20.60;96.80;;;;;;4594979;19;20010;-68
2023/09/16 03:19:43;;;;;;;7.00;4.32;;;20.60;96.80;;;;;;4594752;19;20007;-68
2023/09/16 03:21:18;;;;;;;5.75;3.90;;;20.60;96.80;;;;;;4594983;19;20302;-68
2023/09/16 03:22:52;;;;;;;8.70;4.80;;;20.60;96.70;;;;;;4593698;19;19998;-68
2023/09/16 03:24:26;;;;;;;5.80;4.10;;;20.60;96.70;;;;;;4593561;19;20003;-68
2023/09/16 03:26:02;;;;;;;6.65;4.47;;;20.50;96.70;;;;;;4594717;19;20006;-68
2023/09/16 03:27:37;;;;;;;7.13;4.63;;;20.50;96.60;;;;;;4594638;19;20009;-68
2023/09/16 03:29:12;;;;;;;5.68;3.90;;;20.60;96.60;;;;;;4594744;19;20077;-68
2023/09/16 03:30:46;;;;;;;7.13;4.15;;;20.50;96.60;;;;;;4594645;19;20438;-68
2023/09/16 03:32:22;;;;;;;6.15;4.05;;;20.60;96.60;;;;;;4594595;19;20024;-68
2023/09/16 03:33:56;;;;;;;5.22;3.78;;;20.50;96.50;;;;;;4594568;19;20013;-68
2023/09/16 03:35:34;;;;;;;5.75;3.53;;;20.50;96.50;;;;;;4593183;19;20084;-68
2023/09/16 03:37:08;;;;;;;6.88;4.10;;;20.60;96.60;;;;;;4594733;19;20010;-68
2023/09/16 03:38:49;;;;;;;5.30;3.55;;;20.50;96.60;;;;;;4594431;19;19998;-68
2023/09/16 03:40:24;;;;;;;7.47;4.63;;;20.50;96.60;;;;;;4594451;19;20013;-68
2023/09/16 03:41:58;;;;;;;6.80;3.92;;;20.50;96.50;;;;;;4594390;19;20019;-68
2023/09/16 03:43:33;;;;;;;7.43;4.75;;;20.50;96.40;;;;;;4594597;19;20005;-68
2023/09/16 03:45:11;;;;;;;8.52;5.97;;;20.60;96.50;;;;;;4592730;19;20007;-68
2023/09/16 03:46:48;;;;;;;7.78;5.60;;;20.60;96.40;;;;;;4594284;19;20006;-68
2023/09/16 03:48:22;;;;;;;7.70;5.30;;;20.60;96.30;;;;;;4594340;19;19995;-68
2023/09/16 03:49:57;;;;;;;9.23;5.68;;;20.60;96.30;;;;;;4594480;19;20025;-68
2023/09/16 03:51:31;;;;;;;7.63;5.45;;;20.60;96.30;;;;;;4594179;19;20031;-68
2023/09/16 03:53:05;;;;;;;6.28;4.03;;;20.70;96.40;;;;;;4592249;19;19999;-68
2023/09/16 03:54:41;;;;;;;6.45;4.18;;;20.70;96.30;;;;;;4592404;19;20418;-68
2023/09/16 03:56:15;;;;;;;6.97;3.88;;;20.70;96.20;;;;;;4592727;19;20009;-68
2023/09/16 03:57:49;;;;;;;6.65;4.18;;;20.70;96.10;;;;;;4593927;19;20005;-68
2023/09/16 03:59:24;;;;;;;6.97;4.72;;;20.80;96.10;;;;;;4594595;19;20102;-68
2023/09/16 04:01:02;;;;;;;6.20;4.30;;;20.80;96.00;;;;;;4593976;19;19999;-68
2023/09/16 04:02:41;;;;;;;6.03;3.83;;;20.90;96.00;;;;;;4593962;19;20452;-68
2023/09/16 04:04:17;;;;;;;6.30;4.18;;;20.90;95.90;;;;;;4591839;19;20014;-68
2023/09/16 04:05:54;;;;;;;6.65;4.55;;;20.90;95.80;;;;;;4593552;19;19999;-68
2023/09/16 04:07:32;;;;;;;7.07;4.53;;;21.00;95.80;;;;;;4592539;19;20007;-68
2023/09/16 04:09:07;;;;;;;7.60;4.25;;;21.00;95.80;;;;;;4593434;19;20013;-68
2023/09/16 04:10:42;;;;;;;8.30;4.85;;;21.00;95.90;;;;;;4594051;19;20002;-68
2023/09/16 04:12:17;;;;;;;13.00;6.35;;;21.00;95.90;;;;;;4593722;19;20476;-69
2023/09/16 04:13:52;;;;;;;7.55;4.88;;;21.00;95.80;;;;;;4594002;19;20003;-69
2023/09/16 04:15:26;;;;;;;7.63;4.90;;;21.00;95.80;;;;;;4592537;19;20437;-69
2023/09/16 04:17:00;;;;;;;6.97;5.10;;;21.00;95.80;;;;;;4593945;19;19999;-69
2023/09/16 04:18:37;;;;;;;8.43;4.80;;;21.00;95.60;;;;;;4593654;19;20460;-68
2023/09/16 04:20:11;;;;;;;7.95;4.90;;;21.00;95.60;;;;;;4593543;19;20058;-68
2023/09/16 04:21:49;;;;;;;6.88;4.97;;;21.00;95.70;;;;;;4593605;19;20090;-69
2023/09/16 04:23:25;;;;;;;7.90;4.55;;;21.00;95.60;;;;;;4593883;19;20451;-68
2023/09/16 04:25:00;;;;;;;7.50;4.72;;;21.00;95.60;;;;;;4592160;19;20006;-69
2023/09/16 04:26:34;;;;;;;8.60;5.03;;;21.00;95.70;;;;;;4593384;19;20024;-69
2023/09/16 04:28:09;;;;;;;6.68;3.35;;;21.00;95.60;;;;;;4593689;19;20012;-68
2023/09/16 04:29:44;;;;;;;7.35;3.75;;;21.00;95.60;;;;;;4593401;19;20089;-69
2023/09/16 04:31:19;;;;;;;6.90;4.10;;;21.00;95.70;;;;;;4593547;19;19994;-68
2023/09/16 04:32:54;;;;;;;8.57;4.45;;;20.90;95.60;;;;;;4593339;19;20007;-68
2023/09/16 04:34:29;;;;;;;5.88;3.72;;;20.90;95.60;;;;;;4591553;19;20002;-68
2023/09/16 04:36:04;;;;;;;7.30;4.80;;;20.90;95.70;;;;;;4592892;19;20041;-68
2023/09/16 04:37:41;;;;;;;8.32;5.05;;;20.90;95.70;;;;;;4593269;19;20007;-68
2023/09/16 04:39:16;;;;;;;6.25;4.18;;;20.80;95.60;;;;;;4593459;19;20325;-68
2023/09/16 04:40:50;;;;;;;7.30;4.13;;;20.80;95.60;;;;;;4593194;19;20436;-69
2023/09/16 04:42:30;;;;;;;10.90;5.10;;;20.80;95.60;;;;;;4593347;19;20007;-69
2023/09/16 04:44:08;;;;;;;8.30;5.53;;;20.70;95.50;;;;;;4591640;19;20010;-68
2023/09/16 04:45:48;;;;;;;10.35;5.80;;;20.80;95.60;;;;;;4592717;19;20006;-68
2023/09/16 04:47:23;;;;;;;9.82;5.68;;;20.80;95.50;;;;;;4593063;19;20023;-68
2023/09/16 04:48:58;;;;;;;10.90;6.53;;;20.70;95.60;;;;;;4593014;19;20020;-68
2023/09/16 04:50:32;;;;;;;9.98;6.30;;;20.70;95.70;;;;;;4591559;19;19994;-68
2023/09/16 04:52:08;;;;;;;11.38;6.13;;;20.70;95.80;;;;;;4591231;19;20014;-68
2023/09/16 04:53:44;;;;;;;11.23;6.63;;;20.70;95.70;;;;;;4591551;19;20002;-68
2023/09/16 04:55:17;;;;;;;11.35;5.93;;;20.70;95.80;;;;;;4591877;19;20003;-69
2023/09/16 04:56:52;;;;;;;10.88;5.70;;;20.70;95.90;;;;;;4593072;19;19999;-68
2023/09/16 04:58:28;;;;;;;6.82;4.80;;;20.70;96.30;;;;;;4592804;19;20031;-68
2023/09/16 05:00:05;;;;;;;9.25;4.63;;;20.70;96.20;;;;;;4591418;19;19998;-68
2023/09/16 05:01:42;;;;;;;7.72;4.40;;;20.70;96.20;;;;;;4591385;19;20007;-68
2023/09/16 05:03:18;;;;;;;7.68;4.32;;;20.70;96.30;;;;;;4592309;19;20018;-68
2023/09/16 05:04:53;;;;;;;6.78;3.72;;;20.70;96.40;;;;;;4589822;19;20303;-68
2023/09/16 05:06:27;;;;;;;6.15;4.05;;;20.70;96.50;;;;;;4592488;19;19998;-68
2023/09/16 05:08:02;;;;;;;8.20;3.75;;;20.70;96.50;;;;;;4592590;19;20002;-68
2023/09/16 05:09:36;;;;;;;5.78;3.85;;;20.70;96.60;;;;;;4592477;19;20002;-68
2023/09/16 05:11:11;;;;;;;6.57;3.63;;;20.70;96.70;;;;;;4592418;19;20010;-68
2023/09/16 05:12:46;;;;;;;4.88;3.42;;;20.70;96.90;;;;;;4592549;19;20010;-68
2023/09/16 05:14:21;;;;;;;8.80;4.40;;;20.70;97.00;;;;;;4592187;19;20017;-69
2023/09/16 05:15:55;;;;;;;5.40;3.15;;;20.70;97.30;;;;;;4592563;19;20002;-68
2023/09/16 05:17:30;;;;;;;7.20;2.97;;;20.70;97.60;;;;;;4591111;19;20029;-69
2023/09/16 05:19:05;;;;;;;5.53;3.72;;;20.70;97.80;;;;;;4592014;19;20006;-68
2023/09/16 05:20:41;;;;;;;8.35;3.55;;;20.70;98.00;;;;;;4592325;19;20022;-69
2023/09/16 05:22:17;;;;;;;5.45;3.17;;;20.70;98.10;;;;;;4592394;19;20070;-69
2023/09/16 05:23:53;;;;;;;5.40;3.00;;;20.70;98.30;;;;;;4592123;19;20081;-69
2023/09/16 05:25:31;;;;;;;5.85;2.50;;;20.80;98.60;;;;;;4589735;19;20018;-69
2023/09/16 05:27:07;;;;;;;4.57;2.90;;;20.80;98.80;;;;;;4592017;19;20033;-69
2023/09/16 05:28:41;;;;;;;6.13;3.15;;;20.80;99.00;;;;;;4592385;19;20003;-69
2023/09/16 05:30:15;;;;;;;6.35;3.10;;;20.80;99.20;;;;;;4592103;19;20322;-69
2023/09/16 05:31:51;;;;;;;5.72;2.72;;;20.80;99.30;;;;;;4592226;19;20010;-69
2023/09/16 05:33:25;;;;;;;4.07;2.33;;;20.80;99.40;;;;;;4592057;19;20005;-70
2023/09/16 05:34:59;;;;;;;5.30;2.70;;;20.80;99.60;;;;;;4589992;19;20023;-69
2023/09/16 05:36:34;;;;;;;4.07;2.58;;;20.90;99.60;;;;;;4592007;19;20006;-69
2023/09/16 05:38:09;;;;;;;5.78;2.85;;;20.90;99.80;;;;;;4591999;19;20007;-69
2023/09/16 05:39:43;;;;;;;5.82;3.33;;;20.90;99.90;;;;;;4591936;19;20439;-69
2023/09/16 05:41:19;;;;;;;5.30;3.30;;;20.90;99.90;;;;;;4591987;19;19999;-69
2023/09/16 05:42:53;;;;;;;5.78;3.08;;;20.80;99.90;;;;;;4592054;19;19998;-69
2023/09/16 05:44:27;;;;;;;7.38;2.80;;;20.90;99.90;;;;;;4591086;19;20078;-69
2023/09/16 05:46:02;;;;;;;5.22;2.80;;;20.80;99.90;;;;;;4592093;19;20313;-69
2023/09/16 05:47:37;;;;;;;5.10;2.90;;;20.80;99.90;;;;;;4591737;19;19999;-69
2023/09/16 05:49:11;;;;;;;4.57;3.05;;;20.80;99.90;;;;;;4590876;19;20002;-69
2023/09/16 05:50:56;;;;;;;5.53;3.10;;;20.80;99.90;;;;;;4591377;19;20009;-69
2023/09/16 05:52:31;;;;;;;6.32;3.00;;;20.80;99.90;;;;;;4590645;19;20002;-69
2023/09/16 05:54:05;;;;;;;6.28;3.17;;;20.90;99.90;;;;;;4591632;19;19998;-69
2023/09/16 05:55:40;;;;;;;5.40;3.20;;;20.90;99.90;;;;;;4589463;19;20007;-69
2023/09/16 05:57:14;;;;;;;5.03;3.05;;;20.90;99.90;;;;;;4591233;19;20422;-69
2023/09/16 05:58:50;;;;;;;5.03;3.13;;;20.90;99.90;;;;;;4592003;19;20306;-69
2023/09/16 06:00:26;;;;;;;6.20;3.33;;;20.90;99.90;;;;;;4591633;19;20010;-69
2023/09/16 06:02:00;;;;;;;6.15;3.53;;;21.00;99.90;;;;;;4591914;19;20429;-69
2023/09/16 06:03:37;;;;;;;5.45;3.20;;;21.00;99.90;;;;;;4590261;19;20309;-69
2023/09/16 06:05:11;;;;;;;5.43;2.85;;;21.00;99.90;;;;;;4589936;19;20019;-69
2023/09/16 06:06:45;;;;;;;5.55;3.17;;;21.10;99.90;;;;;;4591521;19;19998;-69
2023/09/16 06:08:21;;;;;;;6.25;3.25;;;21.00;99.90;;;;;;4590266;19;20011;-69
2023/09/16 06:09:56;;;;;;;10.73;3.58;;;21.10;99.90;;;;;;4591445;19;20354;-69
2023/09/16 06:11:31;;;;;;;5.40;3.42;;;21.10;99.90;;;;;;4591816;19;19998;-68
2023/09/16 06:13:07;;;;;;;6.30;2.75;;;21.10;99.90;;;;;;4591560;19;20026;-68
2023/09/16 06:14:42;;;;;;;5.18;3.17;;;21.10;99.90;;;;;;4590846;19;20432;-68
2023/09/16 06:16:15;;;;;;;6.90;3.20;;;21.20;99.90;;;;;;4592258;19;20062;-69
2023/09/16 06:17:51;;;;;;;5.20;3.08;;;21.20;99.90;;;;;;4596434;19;20497;-69
2023/09/16 06:19:26;;;;;;;7.03;3.20;;;21.20;99.90;;;;;;4596028;19;20002;-69
2023/09/16 06:21:00;;;;;;;5.32;2.97;;;21.30;99.90;;;;;;4594661;19;20002;-68
2023/09/16 06:22:35;;;;;;;4.97;2.90;;;21.30;99.90;;;;;;4594759;19;20299;-69
2023/09/16 06:24:09;;;;;;;4.70;2.85;;;21.40;99.90;;;;;;4595044;19;20002;-69
2023/09/16 06:25:44;;;;;;;4.65;2.92;;;21.40;99.90;;;;;;4595902;19;20025;-68
2023/09/16 06:27:21;;;;;;;5.57;3.60;;;21.40;99.90;;;;;;4594632;19;20062;-68
2023/09/16 06:28:55;;;;;;;4.72;2.85;;;21.40;99.90;;;;;;4595446;19;20010;-69
2023/09/16 06:30:29;;;;;;;4.57;2.83;;;21.40;99.90;;;;;;4595809;19;20070;-68
2023/09/16 06:32:05;;;;;;;4.68;3.13;;;21.40;99.90;;;;;;4595921;19;20073;-69
2023/09/16 06:33:39;;;;;;;6.03;3.47;;;21.50;99.90;;;;;;4596036;19;20002;-69
2023/09/16 06:35:13;;;;;;;8.85;3.28;;;21.50;99.90;;;;;;4594380;19;20007;-68
2023/09/16 06:36:49;;;;;;;5.20;3.30;;;21.50;99.90;;;;;;4596026;19;20426;-68
2023/09/16 06:38:25;;;;;;;6.47;3.55;;;21.50;99.90;;;;;;4595674;19;20003;-69
2023/09/16 06:39:59;;;;;;;8.77;3.53;;;21.40;99.90;;;;;;4595567;19;20456;-69
2023/09/16 06:41:35;;;;;;;7.63;3.40;;;21.50;99.90;;;;;;4595612;19;20433;-69
2023/09/16 06:43:09;;;;;;;7.78;3.35;;;21.50;99.90;;;;;;4595583;19;20018;-70
2023/09/16 06:44:43;;;;;;;5.07;3.42;;;21.50;99.90;;;;;;4594566;19;20006;-70
2023/09/16 06:46:19;;;;;;;6.20;3.53;;;21.40;99.90;;;;;;4594046;19;20437;-69
2023/09/16 06:47:56;;;;;;;5.68;3.45;;;21.40;99.90;;;;;;4595022;19;20022;-69
2023/09/16 06:49:31;;;;;;;6.43;3.28;;;21.40;99.90;;;;;;4595689;19;20007;-70
2023/09/16 06:51:06;;;;;;;6.70;3.92;;;21.40;99.90;;;;;;4595461;19;20066;-71
2023/09/16 06:52:40;;;;;;;6.43;3.47;;;21.50;99.90;;;;;;4595315;19;20006;-69
2023/09/16 06:54:15;;;;;;;8.25;4.10;;;21.40;99.90;;;;;;4595394;19;20005;-85
2023/09/16 06:55:53;;;;;;;14.23;4.03;;;21.40;99.90;;;;;;4594026;19;20027;-69
2023/09/16 06:57:27;;;;;;;6.53;3.30;;;21.50;99.90;;;;;;4594926;19;20295;-69
2023/09/16 06:59:01;;;;;;;6.60;3.47;;;21.50;99.90;;;;;;4595432;19;20025;-69
2023/09/16 07:00:37;;;;;;;6.65;3.58;;;21.50;99.90;;;;;;4593780;19;20453;-69
2023/09/16 07:02:11;;;;;;;7.25;3.85;;;21.50;99.90;;;;;;4594978;19;20009;-69
2023/09/16 07:03:45;;;;;;;6.38;3.45;;;21.50;99.90;;;;;;4595065;19;20465;-69
2023/09/16 07:05:23;;;;;;;6.55;4.40;;;21.50;99.90;;;;;;4593280;19;20013;-69
2023/09/16 07:06:57;;;;;;;6.18;3.38;;;21.50;99.90;;;;;;4595054;19;20003;-69
2023/09/16 07:08:33;;;;;;;7.03;3.55;;;21.50;99.90;;;;;;4594975;19;20006;-69
2023/09/16 07:10:08;;;;;;;7.03;4.10;;;21.60;99.90;;;;;;4595353;19;20007;-68
2023/09/16 07:11:42;;;;;;;7.93;3.70;;;21.60;99.90;;;;;;4595040;19;20314;-69
2023/09/16 07:13:16;;;;;;;6.10;3.75;;;21.50;99.90;;;;;;4595194;19;20009;-69
2023/09/16 07:14:52;;;;;;;6.68;3.50;;;21.60;99.90;;;;;;4593990;19;20015;-68
2023/09/16 07:16:40;;;;;;;4.88;3.35;;;21.60;99.90;;;;;;4593768;19;19999;-68
2023/09/16 07:18:15;;;;;;;8.18;3.80;;;21.60;99.90;;;;;;4593460;19;20294;-68
2023/09/16 07:19:50;;;;;;;5.63;3.50;;;21.60;99.90;;;;;;4594439;19;20430;-69
2023/09/16 07:21:24;;;;;;;5.18;3.13;;;21.60;99.90;;;;;;4594986;19;20003;-69
2023/09/16 07:22:58;;;;;;;5.88;3.17;;;21.60;99.90;;;;;;4594715;19;20006;-69
2023/09/16 07:24:34;;;;;;;5.75;3.30;;;21.60;99.90;;;;;;4594067;19;20028;-69
2023/09/16 07:26:09;;;;;;;5.57;3.30;;;21.60;99.90;;;;;;4594684;19;20347;-69
2023/09/16 07:27:43;;;;;;;4.93;2.85;;;21.60;99.90;;;;;;4594191;19;20077;-69
2023/09/16 07:29:19;;;;;;;5.75;3.60;;;21.60;99.90;;;;;;4594306;19;20022;-69
2023/09/16 07:30:55;;;;;;;5.13;3.28;;;21.70;99.90;;;;;;4594885;19;20413;-69
2023/09/16 07:32:29;;;;;;;5.57;3.45;;;21.70;99.90;;;;;;4593007;19;20017;-68
2023/09/16 07:34:04;;;;;;;5.93;3.55;;;21.70;99.90;;;;;;4594155;19;20036;-69
2023/09/16 07:35:38;;;;;;;6.53;3.17;;;21.70;99.90;;;;;;4591533;19;20012;-69
2023/09/16 07:37:11;;;;;;;5.63;3.53;;;21.70;99.90;;;;;;4594396;19;20043;-70
2023/09/16 07:38:47;;;;;;;6.03;3.03;;;21.70;99.90;;;;;;4594636;19;20026;-69
2023/09/16 07:40:22;;;;;;;5.53;3.00;;;21.80;99.90;;;;;;4594612;19;19999;-69
2023/09/16 07:41:56;;;;;;;5.38;3.70;;;21.80;99.90;;;;;;4594294;19;20019;-69
2023/09/16 07:43:32;;;;;;;8.35;3.60;;;21.80;99.90;;;;;;4594720;19;20010;-69
2023/09/16 07:45:08;;;;;;;5.18;3.40;;;21.80;99.90;;;;;;4592926;19;20336;-69
2023/09/16 07:46:42;;;;;;;6.32;3.78;;;21.80;99.90;;;;;;4594515;19;20002;-69
2023/09/16 07:48:17;;;;;;;7.10;3.03;;;21.90;99.90;;;;;;4594116;19;19999;-69
2023/09/16 07:49:51;;;;;;;6.47;3.05;;;21.90;99.90;;;;;;4592793;19;20007;-69
2023/09/16 07:51:25;;;;;;;5.32;3.40;;;22.00;99.90;;;;;;4593796;19;20022;-69
2023/09/16 07:53:03;;;;;;;7.63;3.63;;;22.10;99.90;;;;;;4594208;19;20433;-69
2023/09/16 07:54:38;;;;;;;5.40;3.28;;;22.20;99.90;;;;;;4592430;19;20002;-69
2023/09/16 07:56:12;;;;;;;4.50;2.90;;;22.20;99.90;;;;;;4593738;19;19998;-69
2023/09/16 07:57:48;;;;;;;5.22;3.25;;;22.30;99.90;;;;;;4594305;19;20032;-69
2023/09/16 07:59:23;;;;;;;4.28;3.40;;;22.30;99.90;;;;;;4593977;19;20015;-69
2023/09/16 08:00:56;;;;;;;5.53;3.58;;;22.40;99.90;;;;;;4592737;19;20028;-69
2023/09/16 08:02:31;;;;;;;4.45;3.20;;;22.40;99.90;;;;;;4593564;19;19998;-69
2023/09/16 08:04:05;;;;;;;7.35;3.88;;;22.40;99.90;;;;;;4593466;19;20003;-69
2023/09/16 08:05:40;;;;;;;5.15;3.20;;;22.40;99.90;;;;;;4593814;19;20291;-70
2023/09/16 08:07:15;;;;;;;7.35;3.70;;;22.40;99.90;;;;;;4592490;19;20006;-68
2023/09/16 08:08:50;;;;;;;6.57;3.70;;;22.50;99.90;;;;;;4593596;19;20024;-68
2023/09/16 08:10:24;;;;;;;5.05;3.08;;;22.50;99.90;;;;;;4593847;19;19998;-69
2023/09/16 08:11:59;;;;;;;7.18;2.92;;;22.50;99.90;;;;;;4593654;19;20015;-69
2023/09/16 08:13:34;;;;;;;4.85;2.90;;;22.40;99.90;;;;;;4593527;19;20344;-69
2023/09/16 08:15:08;;;;;;;5.15;3.30;;;22.50;99.90;;;;;;4591308;19;20430;-69
2023/09/16 08:16:43;;;;;;;4.85;3.28;;;22.50;99.90;;;;;;4593255;19;20014;-69
2023/09/16 08:18:17;;;;;;;5.30;3.22;;;22.50;99.90;;;;;;4593551;19;20025;-68
2023/09/16 08:19:51;;;;;;;5.35;2.60;;;22.50;99.90;;;;;;4593490;19;19999;-69
2023/09/16 08:21:27;;;;;;;5.53;3.10;;;22.50;99.90;;;;;;4593482;19;20045;-68
2023/09/16 08:23:02;;;;;;;4.85;3.63;;;22.50;99.90;;;;;;4593569;19;20025;-69
2023/09/16 08:24:36;;;;;;;5.57;3.00;;;22.50;99.90;;;;;;4592663;19;20013;-69
2023/09/16 08:26:11;;;;;;;4.55;2.80;;;22.60;99.90;;;;;;4593631;19;20002;-68
2023/09/16 08:27:45;;;;;;;4.70;3.33;;;22.60;99.90;;;;;;4593434;19;19999;-68